首页
METAR-TAF:

METAR-TAF

机场 :

钦戈兹伊机场

太特, 莫桑比克

纬度: 16-06S, 经度: 033-38E, 海拔: 160米

当前天气观测

该预报发布于1小时和8分钟前的10:00 UTC
风速5节,风向,在东南西转西南之间变化
温度 27°C
湿度 48%
气压 1021 hPa
能见度10公里或以上
散云层高于2000英尺

METAR: FQTT 261000Z 19005KT 130V240 9999 SCT020 27/15 Q1021

时间: 13:08 (11:08 UTC)

预报

该预报发布于7小时和8分钟前的04:00 UTC
预报有效从26日的 06点(UTC)到 27日的 06点(UTC)
风速3节,风向多变
能见度10公里或以上
多云层高于2000英尺
成为
从 26日的 06点(UTC)到 26日的 08点(UTC)
风速6节,风向东南

TAF: FQTT 260400Z 2606/2706 VRB03KT 9999 BKN020 TX31/2613Z TN16/2702Z BECMG 2606/2608 14006KT

超过4000个机场的气象观测和天气预报(METAR&TAF报告)。

可查询的气象台以黄色和红色小点在地图上表示。

将鼠标移到小点上方,可查看气象台名称。

然后点击查看天气观测和预报。

如需切换地图:点击带黑十字的绿色按钮放大地图;点击带横线的绿色按钮缩小地图;或者点击绿色箭头查看邻近地区的地图。


METAR-TAF: